sensor_id;sensor_type;location;lat;lon;timestamp;P1;durP1;ratioP1;P2;durP2;ratioP2
21731;SDS011;11028;51.156;17.130;2023-08-31T00:00:28;12.25;;;6.70;;
21731;SDS011;11028;51.156;17.130;2023-08-31T00:07:48;9.85;;;6.38;;
21731;SDS011;11028;51.156;17.130;2023-08-31T00:15:06;9.45;;;5.43;;
21731;SDS011;11028;51.156;17.130;2023-08-31T00:22:26;8.23;;;5.53;;
21731;SDS011;11028;51.156;17.130;2023-08-31T00:29:46;10.05;;;5.90;;
21731;SDS011;11028;51.156;17.130;2023-08-31T00:37:07;8.13;;;5.88;;
21731;SDS011;11028;51.156;17.130;2023-08-31T00:44:25;9.82;;;6.20;;
21731;SDS011;11028;51.156;17.130;2023-08-31T00:51:45;9.55;;;6.00;;
21731;SDS011;11028;51.156;17.130;2023-08-31T00:59:07;12.80;;;6.43;;
21731;SDS011;11028;51.156;17.130;2023-08-31T01:06:27;13.75;;;6.28;;
21731;SDS011;11028;51.156;17.130;2023-08-31T01:13:56;8.40;;;5.78;;
21731;SDS011;11028;51.156;17.130;2023-08-31T01:21:22;10.63;;;5.68;;
21731;SDS011;11028;51.156;17.130;2023-08-31T01:28:45;10.73;;;5.97;;
21731;SDS011;11028;51.156;17.130;2023-08-31T01:36:04;10.35;;;5.88;;
21731;SDS011;11028;51.156;17.130;2023-08-31T01:43:30;7.57;;;5.63;;
21731;SDS011;11028;51.156;17.130;2023-08-31T01:50:51;7.70;;;5.15;;
21731;SDS011;11028;51.156;17.130;2023-08-31T01:58:09;8.95;;;5.68;;
21731;SDS011;11028;51.156;17.130;2023-08-31T02:05:29;11.75;;;6.43;;
21731;SDS011;11028;51.156;17.130;2023-08-31T02:12:49;12.65;;;6.28;;
21731;SDS011;11028;51.156;17.130;2023-08-31T02:20:08;8.80;;;6.32;;
21731;SDS011;11028;51.156;17.130;2023-08-31T02:27:27;8.77;;;6.22;;
21731;SDS011;11028;51.156;17.130;2023-08-31T02:34:47;9.43;;;6.65;;
21731;SDS011;11028;51.156;17.130;2023-08-31T02:42:05;13.57;;;7.35;;
21731;SDS011;11028;51.156;17.130;2023-08-31T02:49:24;9.15;;;6.30;;
21731;SDS011;11028;51.156;17.130;2023-08-31T02:56:46;8.98;;;5.60;;
21731;SDS011;11028;51.156;17.130;2023-08-31T03:04:05;7.80;;;5.88;;
21731;SDS011;11028;51.156;17.130;2023-08-31T03:11:23;8.50;;;5.72;;
21731;SDS011;11028;51.156;17.130;2023-08-31T03:18:43;9.20;;;5.90;;
21731;SDS011;11028;51.156;17.130;2023-08-31T03:26:06;10.30;;;5.60;;
21731;SDS011;11028;51.156;17.130;2023-08-31T03:33:24;9.75;;;5.38;;
21731;SDS011;11028;51.156;17.130;2023-08-31T03:40:53;7.90;;;5.20;;
21731;SDS011;11028;51.156;17.130;2023-08-31T03:48:12;9.00;;;5.63;;
21731;SDS011;11028;51.156;17.130;2023-08-31T03:55:31;11.75;;;5.68;;
21731;SDS011;11028;51.156;17.130;2023-08-31T04:02:51;9.38;;;5.85;;
21731;SDS011;11028;51.156;17.130;2023-08-31T04:10:12;8.05;;;6.43;;
21731;SDS011;11028;51.156;17.130;2023-08-31T04:17:30;8.23;;;5.72;;
21731;SDS011;11028;51.156;17.130;2023-08-31T04:24:51;13.07;;;6.68;;
21731;SDS011;11028;51.156;17.130;2023-08-31T04:32:09;9.40;;;6.13;;
21731;SDS011;11028;51.156;17.130;2023-08-31T04:39:28;9.25;;;6.25;;
21731;SDS011;11028;51.156;17.130;2023-08-31T04:46:47;9.85;;;5.82;;
21731;SDS011;11028;51.156;17.130;2023-08-31T04:54:06;11.75;;;6.10;;
21731;SDS011;11028;51.156;17.130;2023-08-31T05:01:26;11.32;;;6.53;;
21731;SDS011;11028;51.156;17.130;2023-08-31T05:08:46;9.18;;;6.45;;
21731;SDS011;11028;51.156;17.130;2023-08-31T05:16:05;9.02;;;6.03;;
21731;SDS011;11028;51.156;17.130;2023-08-31T05:23:23;9.30;;;6.72;;
21731;SDS011;11028;51.156;17.130;2023-08-31T05:30:49;13.18;;;6.40;;
21731;SDS011;11028;51.156;17.130;2023-08-31T05:38:08;9.63;;;6.40;;
21731;SDS011;11028;51.156;17.130;2023-08-31T05:45:27;10.88;;;6.53;;
21731;SDS011;11028;51.156;17.130;2023-08-31T05:52:46;9.75;;;6.57;;
21731;SDS011;11028;51.156;17.130;2023-08-31T06:00:05;13.60;;;6.68;;
21731;SDS011;11028;51.156;17.130;2023-08-31T06:07:28;7.45;;;5.82;;
21731;SDS011;11028;51.156;17.130;2023-08-31T06:14:47;8.18;;;5.70;;
21731;SDS011;11028;51.156;17.130;2023-08-31T06:22:06;10.68;;;7.15;;
21731;SDS011;11028;51.156;17.130;2023-08-31T06:29:24;11.93;;;6.72;;
21731;SDS011;11028;51.156;17.130;2023-08-31T06:36:44;8.32;;;6.68;;
21731;SDS011;11028;51.156;17.130;2023-08-31T06:44:02;10.10;;;6.90;;
21731;SDS011;11028;51.156;17.130;2023-08-31T06:51:22;9.40;;;6.63;;
21731;SDS011;11028;51.156;17.130;2023-08-31T06:58:42;7.88;;;5.88;;
21731;SDS011;11028;51.156;17.130;2023-08-31T07:06:01;6.90;;;5.65;;
21731;SDS011;11028;51.156;17.130;2023-08-31T07:13:19;7.57;;;5.25;;
21731;SDS011;11028;51.156;17.130;2023-08-31T07:20:39;8.68;;;6.38;;
21731;SDS011;11028;51.156;17.130;2023-08-31T07:27:57;8.68;;;5.30;;
21731;SDS011;11028;51.156;17.130;2023-08-31T07:35:16;7.57;;;5.80;;
21731;SDS011;11028;51.156;17.130;2023-08-31T07:42:35;10.25;;;5.38;;
21731;SDS011;11028;51.156;17.130;2023-08-31T07:49:54;8.30;;;5.78;;
21731;SDS011;11028;51.156;17.130;2023-08-31T07:57:13;11.13;;;7.22;;
21731;SDS011;11028;51.156;17.130;2023-08-31T08:04:33;7.88;;;5.10;;
21731;SDS011;11028;51.156;17.130;2023-08-31T08:11:51;7.28;;;5.40;;
21731;SDS011;11028;51.156;17.130;2023-08-31T08:19:09;8.75;;;5.20;;
21731;SDS011;11028;51.156;17.130;2023-08-31T08:26:29;8.00;;;4.80;;
21731;SDS011;11028;51.156;17.130;2023-08-31T08:33:47;7.45;;;5.30;;
21731;SDS011;11028;51.156;17.130;2023-08-31T08:41:05;8.05;;;5.40;;
21731;SDS011;11028;51.156;17.130;2023-08-31T08:48:26;5.63;;;4.03;;
21731;SDS011;11028;51.156;17.130;2023-08-31T08:55:44;5.28;;;4.07;;
21731;SDS011;11028;51.156;17.130;2023-08-31T09:03:02;9.82;;;5.47;;
21731;SDS011;11028;51.156;17.130;2023-08-31T09:10:23;5.63;;;4.97;;
21731;SDS011;11028;51.156;17.130;2023-08-31T09:17:41;7.40;;;4.43;;
21731;SDS011;11028;51.156;17.130;2023-08-31T09:25:01;5.18;;;4.13;;
21731;SDS011;11028;51.156;17.130;2023-08-31T09:32:23;6.28;;;4.63;;
21731;SDS011;11028;51.156;17.130;2023-08-31T09:39:41;3.65;;;3.00;;
21731;SDS011;11028;51.156;17.130;2023-08-31T09:47:00;3.20;;;1.77;;
21731;SDS011;11028;51.156;17.130;2023-08-31T09:54:22;3.20;;;1.90;;
21731;SDS011;11028;51.156;17.130;2023-08-31T10:01:44;3.65;;;1.67;;
21731;SDS011;11028;51.156;17.130;2023-08-31T10:09:03;2.60;;;2.25;;
21731;SDS011;11028;51.156;17.130;2023-08-31T10:16:23;3.05;;;2.42;;
21731;SDS011;11028;51.156;17.130;2023-08-31T10:23:46;4.53;;;2.85;;
21731;SDS011;11028;51.156;17.130;2023-08-31T10:31:05;4.00;;;2.78;;
21731;SDS011;11028;51.156;17.130;2023-08-31T10:38:27;3.85;;;3.17;;
21731;SDS011;11028;51.156;17.130;2023-08-31T10:45:47;4.67;;;3.20;;
21731;SDS011;11028;51.156;17.130;2023-08-31T10:53:08;16.10;;;5.10;;
21731;SDS011;11028;51.156;17.130;2023-08-31T11:00:51;6.32;;;3.45;;
21731;SDS011;11028;51.156;17.130;2023-08-31T11:08:13;13.52;;;6.75;;
21731;SDS011;11028;51.156;17.130;2023-08-31T11:15:32;4.25;;;3.55;;
21731;SDS011;11028;51.156;17.130;2023-08-31T11:22:52;4.30;;;2.97;;
21731;SDS011;11028;51.156;17.130;2023-08-31T11:30:14;7.00;;;4.97;;
21731;SDS011;11028;51.156;17.130;2023-08-31T11:37:32;6.10;;;3.15;;
21731;SDS011;11028;51.156;17.130;2023-08-31T11:44:53;6.57;;;2.50;;
21731;SDS011;11028;51.156;17.130;2023-08-31T11:52:11;4.22;;;2.80;;
21731;SDS011;11028;51.156;17.130;2023-08-31T11:59:31;4.57;;;2.95;;
21731;SDS011;11028;51.156;17.130;2023-08-31T12:06:59;3.85;;;2.33;;
21731;SDS011;11028;51.156;17.130;2023-08-31T12:14:21;6.78;;;3.28;;
21731;SDS011;11028;51.156;17.130;2023-08-31T12:21:41;8.32;;;3.00;;
21731;SDS011;11028;51.156;17.130;2023-08-31T12:29:02;6.03;;;2.63;;
21731;SDS011;11028;51.156;17.130;2023-08-31T12:36:21;2.78;;;2.35;;
21731;SDS011;11028;51.156;17.130;2023-08-31T12:43:39;7.97;;;2.33;;
21731;SDS011;11028;51.156;17.130;2023-08-31T12:50:59;4.13;;;2.05;;
21731;SDS011;11028;51.156;17.130;2023-08-31T12:58:18;5.40;;;2.63;;
21731;SDS011;11028;51.156;17.130;2023-08-31T13:05:38;2.40;;;2.10;;
21731;SDS011;11028;51.156;17.130;2023-08-31T13:12:58;3.17;;;2.60;;
21731;SDS011;11028;51.156;17.130;2023-08-31T13:20:17;3.83;;;2.55;;
21731;SDS011;11028;51.156;17.130;2023-08-31T13:27:35;2.90;;;2.30;;
21731;SDS011;11028;51.156;17.130;2023-08-31T13:34:55;4.30;;;2.42;;
21731;SDS011;11028;51.156;17.130;2023-08-31T13:42:14;2.78;;;2.35;;
21731;SDS011;11028;51.156;17.130;2023-08-31T13:49:32;2.65;;;2.05;;
21731;SDS011;11028;51.156;17.130;2023-08-31T13:56:52;2.78;;;2.00;;
21731;SDS011;11028;51.156;17.130;2023-08-31T14:04:11;6.40;;;2.20;;
21731;SDS011;11028;51.156;17.130;2023-08-31T14:11:29;4.00;;;2.05;;
21731;SDS011;11028;51.156;17.130;2023-08-31T14:18:49;2.55;;;1.92;;
21731;SDS011;11028;51.156;17.130;2023-08-31T14:26:07;2.78;;;1.90;;
21731;SDS011;11028;51.156;17.130;2023-08-31T14:33:27;5.85;;;3.20;;
21731;SDS011;11028;51.156;17.130;2023-08-31T14:40:47;3.05;;;2.10;;
21731;SDS011;11028;51.156;17.130;2023-08-31T14:48:06;4.20;;;1.90;;
21731;SDS011;11028;51.156;17.130;2023-08-31T14:55:26;5.05;;;1.90;;
21731;SDS011;11028;51.156;17.130;2023-08-31T15:02:47;3.20;;;2.03;;
21731;SDS011;11028;51.156;17.130;2023-08-31T15:10:06;2.30;;;2.10;;
21731;SDS011;11028;51.156;17.130;2023-08-31T15:17:26;2.80;;;1.80;;
21731;SDS011;11028;51.156;17.130;2023-08-31T15:24:50;3.58;;;1.60;;
21731;SDS011;11028;51.156;17.130;2023-08-31T15:32:09;3.60;;;1.65;;
21731;SDS011;11028;51.156;17.130;2023-08-31T15:39:28;2.75;;;1.80;;
21731;SDS011;11028;51.156;17.130;2023-08-31T15:46:49;3.08;;;1.75;;
21731;SDS011;11028;51.156;17.130;2023-08-31T15:54:07;3.65;;;2.10;;
21731;SDS011;11028;51.156;17.130;2023-08-31T16:01:26;3.80;;;2.15;;
21731;SDS011;11028;51.156;17.130;2023-08-31T16:08:48;3.95;;;2.17;;
21731;SDS011;11028;51.156;17.130;2023-08-31T16:16:07;6.70;;;1.95;;
21731;SDS011;11028;51.156;17.130;2023-08-31T16:23:26;2.45;;;1.30;;
21731;SDS011;11028;51.156;17.130;2023-08-31T16:30:46;13.85;;;6.75;;
21731;SDS011;11028;51.156;17.130;2023-08-31T16:38:05;8.13;;;1.88;;
21731;SDS011;11028;51.156;17.130;2023-08-31T16:45:21;3.78;;;1.52;;
21731;SDS011;11028;51.156;17.130;2023-08-31T17:36:17;3.85;;;1.85;;
21731;SDS011;11028;51.156;17.130;2023-08-31T17:43:35;3.15;;;1.80;;
21731;SDS011;11028;51.156;17.130;2023-08-31T17:50:54;5.05;;;2.50;;
21731;SDS011;11028;51.156;17.130;2023-08-31T17:58:14;5.22;;;2.83;;
21731;SDS011;11028;51.156;17.130;2023-08-31T18:05:33;3.08;;;2.40;;
21731;SDS011;11028;51.156;17.130;2023-08-31T18:12:51;3.22;;;2.40;;
21731;SDS011;11028;51.156;17.130;2023-08-31T18:20:13;4.25;;;2.38;;
21731;SDS011;11028;51.156;17.130;2023-08-31T18:27:32;5.60;;;3.50;;
21731;SDS011;11028;51.156;17.130;2023-08-31T18:34:50;5.45;;;3.38;;
21731;SDS011;11028;51.156;17.130;2023-08-31T18:42:11;5.95;;;3.42;;
21731;SDS011;11028;51.156;17.130;2023-08-31T18:49:30;3.33;;;2.63;;
21731;SDS011;11028;51.156;17.130;2023-08-31T18:56:50;3.92;;;2.30;;
21731;SDS011;11028;51.156;17.130;2023-08-31T19:04:10;5.20;;;2.47;;
21731;SDS011;11028;51.156;17.130;2023-08-31T19:11:28;5.07;;;2.22;;
21731;SDS011;11028;51.156;17.130;2023-08-31T19:18:47;5.30;;;1.67;;
21731;SDS011;11028;51.156;17.130;2023-08-31T19:26:09;3.22;;;2.30;;
21731;SDS011;11028;51.156;17.130;2023-08-31T19:33:29;2.80;;;1.85;;
21731;SDS011;11028;51.156;17.130;2023-08-31T19:40:49;5.15;;;2.58;;
21731;SDS011;11028;51.156;17.130;2023-08-31T19:48:09;3.53;;;2.20;;
21731;SDS011;11028;51.156;17.130;2023-08-31T19:55:29;4.03;;;2.45;;
21731;SDS011;11028;51.156;17.130;2023-08-31T20:02:48;4.70;;;2.97;;
21731;SDS011;11028;51.156;17.130;2023-08-31T20:10:08;5.20;;;2.35;;
21731;SDS011;11028;51.156;17.130;2023-08-31T20:17:27;4.55;;;2.20;;
21731;SDS011;11028;51.156;17.130;2023-08-31T20:24:46;5.85;;;3.45;;
21731;SDS011;11028;51.156;17.130;2023-08-31T20:32:07;3.55;;;2.30;;
21731;SDS011;11028;51.156;17.130;2023-08-31T20:39:26;3.00;;;2.33;;
21731;SDS011;11028;51.156;17.130;2023-08-31T20:46:44;7.32;;;2.78;;
21731;SDS011;11028;51.156;17.130;2023-08-31T20:54:07;5.90;;;2.80;;
21731;SDS011;11028;51.156;17.130;2023-08-31T21:01:25;6.13;;;2.15;;
21731;SDS011;11028;51.156;17.130;2023-08-31T21:08:44;3.40;;;2.45;;
21731;SDS011;11028;51.156;17.130;2023-08-31T21:16:04;9.02;;;2.28;;
21731;SDS011;11028;51.156;17.130;2023-08-31T21:23:23;3.50;;;2.47;;
21731;SDS011;11028;51.156;17.130;2023-08-31T21:30:43;3.50;;;2.42;;
21731;SDS011;11028;51.156;17.130;2023-08-31T21:38:04;4.43;;;2.78;;
21731;SDS011;11028;51.156;17.130;2023-08-31T21:45:22;4.47;;;2.95;;
21731;SDS011;11028;51.156;17.130;2023-08-31T21:52:41;6.82;;;2.70;;
21731;SDS011;11028;51.156;17.130;2023-08-31T22:00:01;2.65;;;2.33;;
21731;SDS011;11028;51.156;17.130;2023-08-31T22:07:21;4.75;;;2.25;;
21731;SDS011;11028;51.156;17.130;2023-08-31T22:14:43;3.80;;;2.53;;
21731;SDS011;11028;51.156;17.130;2023-08-31T22:22:03;5.10;;;2.53;;
21731;SDS011;11028;51.156;17.130;2023-08-31T22:29:22;4.50;;;2.63;;
21731;SDS011;11028;51.156;17.130;2023-08-31T22:36:41;6.32;;;3.00;;
21731;SDS011;11028;51.156;17.130;2023-08-31T22:44:00;4.78;;;2.50;;
21731;SDS011;11028;51.156;17.130;2023-08-31T22:51:19;4.85;;;2.63;;
21731;SDS011;11028;51.156;17.130;2023-08-31T22:58:38;6.07;;;2.80;;
21731;SDS011;11028;51.156;17.130;2023-08-31T23:05:58;3.90;;;2.30;;
21731;SDS011;11028;51.156;17.130;2023-08-31T23:13:17;7.28;;;2.53;;
21731;SDS011;11028;51.156;17.130;2023-08-31T23:20:35;3.72;;;2.90;;
21731;SDS011;11028;51.156;17.130;2023-08-31T23:27:56;4.28;;;2.40;;
21731;SDS011;11028;51.156;17.130;2023-08-31T23:35:16;5.80;;;2.60;;
21731;SDS011;11028;51.156;17.130;2023-08-31T23:42:35;2.58;;;2.28;;
21731;SDS011;11028;51.156;17.130;2023-08-31T23:49:58;9.82;;;4.65;;
21731;SDS011;11028;51.156;17.130;2023-08-31T23:57:17;6.85;;;2.40;;
